sensor_id;sensor_type;location;lat;lon;timestamp;P1;durP1;ratioP1;P2;durP2;ratioP2
2099;SDS011;1055;48.854;9.302;2023-04-29T00:00:07;8.93;;;5.87;;
2099;SDS011;1055;48.854;9.302;2023-04-29T00:02:35;8.27;;;5.87;;
2099;SDS011;1055;48.854;9.302;2023-04-29T00:05:00;13.37;;;6.10;;
2099;SDS011;1055;48.854;9.302;2023-04-29T00:07:28;10.37;;;5.97;;
2099;SDS011;1055;48.854;9.302;2023-04-29T00:09:56;9.23;;;5.30;;
2099;SDS011;1055;48.854;9.302;2023-04-29T00:12:22;10.32;;;6.20;;
2099;SDS011;1055;48.854;9.302;2023-04-29T00:14:48;9.57;;;5.60;;
2099;SDS011;1055;48.854;9.302;2023-04-29T00:17:14;10.23;;;6.57;;
2099;SDS011;1055;48.854;9.302;2023-04-29T00:19:40;9.40;;;5.33;;
2099;SDS011;1055;48.854;9.302;2023-04-29T00:22:06;8.57;;;5.90;;
2099;SDS011;1055;48.854;9.302;2023-04-29T00:24:32;8.60;;;5.67;;
2099;SDS011;1055;48.854;9.302;2023-04-29T00:26:57;8.60;;;5.37;;
2099;SDS011;1055;48.854;9.302;2023-04-29T00:29:23;10.83;;;5.20;;
2099;SDS011;1055;48.854;9.302;2023-04-29T00:31:49;9.03;;;5.70;;
2099;SDS011;1055;48.854;9.302;2023-04-29T00:34:14;8.57;;;5.60;;
2099;SDS011;1055;48.854;9.302;2023-04-29T00:36:41;8.70;;;5.53;;
2099;SDS011;1055;48.854;9.302;2023-04-29T00:39:06;10.00;;;5.93;;
2099;SDS011;1055;48.854;9.302;2023-04-29T00:41:32;10.60;;;5.80;;
2099;SDS011;1055;48.854;9.302;2023-04-29T00:43:58;9.10;;;5.63;;
2099;SDS011;1055;48.854;9.302;2023-04-29T00:46:23;9.07;;;5.37;;
2099;SDS011;1055;48.854;9.302;2023-04-29T00:48:49;8.40;;;5.63;;
2099;SDS011;1055;48.854;9.302;2023-04-29T00:51:15;8.43;;;5.20;;
2099;SDS011;1055;48.854;9.302;2023-04-29T00:53:42;8.33;;;5.30;;
2099;SDS011;1055;48.854;9.302;2023-04-29T00:56:08;9.20;;;5.53;;
2099;SDS011;1055;48.854;9.302;2023-04-29T00:58:35;10.90;;;4.80;;
2099;SDS011;1055;48.854;9.302;2023-04-29T01:01:03;7.73;;;5.37;;
2099;SDS011;1055;48.854;9.302;2023-04-29T01:03:29;8.60;;;5.30;;
2099;SDS011;1055;48.854;9.302;2023-04-29T01:05:58;9.63;;;5.97;;
2099;SDS011;1055;48.854;9.302;2023-04-29T01:11:33;9.67;;;5.83;;
2099;SDS011;1055;48.854;9.302;2023-04-29T01:14:03;8.50;;;5.07;;
2099;SDS011;1055;48.854;9.302;2023-04-29T01:16:33;9.60;;;6.37;;
2099;SDS011;1055;48.854;9.302;2023-04-29T01:21:53;8.90;;;5.57;;
2099;SDS011;1055;48.854;9.302;2023-04-29T01:24:18;9.23;;;6.10;;
2099;SDS011;1055;48.854;9.302;2023-04-29T01:26:45;10.17;;;6.30;;
2099;SDS011;1055;48.854;9.302;2023-04-29T01:32:16;9.27;;;5.87;;
2099;SDS011;1055;48.854;9.302;2023-04-29T01:34:55;9.47;;;6.60;;
2099;SDS011;1055;48.854;9.302;2023-04-29T01:40:36;8.97;;;5.67;;
2099;SDS011;1055;48.854;9.302;2023-04-29T01:43:07;7.17;;;4.87;;
2099;SDS011;1055;48.854;9.302;2023-04-29T01:45:35;9.10;;;5.57;;
2099;SDS011;1055;48.854;9.302;2023-04-29T01:48:06;9.43;;;5.50;;
2099;SDS011;1055;48.854;9.302;2023-04-29T01:50:32;8.60;;;5.73;;
2099;SDS011;1055;48.854;9.302;2023-04-29T01:52:58;9.63;;;5.30;;
2099;SDS011;1055;48.854;9.302;2023-04-29T01:55:24;8.73;;;4.80;;
2099;SDS011;1055;48.854;9.302;2023-04-29T01:57:50;7.17;;;4.53;;
2099;SDS011;1055;48.854;9.302;2023-04-29T02:00:16;9.50;;;5.10;;
2099;SDS011;1055;48.854;9.302;2023-04-29T02:02:42;7.70;;;5.00;;
2099;SDS011;1055;48.854;9.302;2023-04-29T02:05:08;8.80;;;5.37;;
2099;SDS011;1055;48.854;9.302;2023-04-29T02:07:34;14.10;;;5.47;;
2099;SDS011;1055;48.854;9.302;2023-04-29T02:09:59;7.57;;;5.20;;
2099;SDS011;1055;48.854;9.302;2023-04-29T02:12:25;8.43;;;5.53;;
2099;SDS011;1055;48.854;9.302;2023-04-29T02:14:51;8.10;;;5.73;;
2099;SDS011;1055;48.854;9.302;2023-04-29T02:17:17;9.80;;;6.47;;
2099;SDS011;1055;48.854;9.302;2023-04-29T02:19:43;9.13;;;6.03;;
2099;SDS011;1055;48.854;9.302;2023-04-29T02:22:09;9.50;;;7.20;;
2099;SDS011;1055;48.854;9.302;2023-04-29T02:24:36;8.73;;;5.90;;
2099;SDS011;1055;48.854;9.302;2023-04-29T02:27:03;9.20;;;5.97;;
2099;SDS011;1055;48.854;9.302;2023-04-29T02:29:30;8.67;;;5.63;;
2099;SDS011;1055;48.854;9.302;2023-04-29T02:31:56;9.60;;;6.10;;
2099;SDS011;1055;48.854;9.302;2023-04-29T02:34:22;10.07;;;6.37;;
2099;SDS011;1055;48.854;9.302;2023-04-29T02:36:48;9.70;;;5.60;;
2099;SDS011;1055;48.854;9.302;2023-04-29T02:39:14;8.73;;;5.22;;
2099;SDS011;1055;48.854;9.302;2023-04-29T02:41:40;9.70;;;6.27;;
2099;SDS011;1055;48.854;9.302;2023-04-29T02:44:06;7.90;;;5.33;;
2099;SDS011;1055;48.854;9.302;2023-04-29T02:46:32;9.43;;;6.23;;
2099;SDS011;1055;48.854;9.302;2023-04-29T02:49:00;9.15;;;5.40;;
2099;SDS011;1055;48.854;9.302;2023-04-29T02:51:26;8.67;;;5.87;;
2099;SDS011;1055;48.854;9.302;2023-04-29T02:53:52;8.10;;;5.17;;
2099;SDS011;1055;48.854;9.302;2023-04-29T02:56:17;9.10;;;5.50;;
2099;SDS011;1055;48.854;9.302;2023-04-29T02:58:43;9.53;;;5.83;;
2099;SDS011;1055;48.854;9.302;2023-04-29T03:01:09;8.43;;;5.30;;
2099;SDS011;1055;48.854;9.302;2023-04-29T03:03:35;9.77;;;5.47;;
2099;SDS011;1055;48.854;9.302;2023-04-29T03:06:01;8.75;;;5.50;;
2099;SDS011;1055;48.854;9.302;2023-04-29T03:08:27;9.30;;;5.73;;
2099;SDS011;1055;48.854;9.302;2023-04-29T03:10:53;8.63;;;5.60;;
2099;SDS011;1055;48.854;9.302;2023-04-29T03:13:19;8.67;;;5.80;;
2099;SDS011;1055;48.854;9.302;2023-04-29T03:15:44;9.13;;;6.00;;
2099;SDS011;1055;48.854;9.302;2023-04-29T03:18:10;9.23;;;6.60;;
2099;SDS011;1055;48.854;9.302;2023-04-29T03:20:36;10.10;;;5.87;;
2099;SDS011;1055;48.854;9.302;2023-04-29T03:23:01;11.60;;;6.10;;
2099;SDS011;1055;48.854;9.302;2023-04-29T03:25:27;8.38;;;5.25;;
2099;SDS011;1055;48.854;9.302;2023-04-29T03:27:54;8.80;;;5.63;;
2099;SDS011;1055;48.854;9.302;2023-04-29T03:30:20;9.80;;;6.17;;
2099;SDS011;1055;48.854;9.302;2023-04-29T03:32:46;10.43;;;5.80;;
2099;SDS011;1055;48.854;9.302;2023-04-29T03:35:12;8.63;;;5.40;;
2099;SDS011;1055;48.854;9.302;2023-04-29T03:37:37;9.20;;;5.33;;
2099;SDS011;1055;48.854;9.302;2023-04-29T03:40:04;9.32;;;4.75;;
2099;SDS011;1055;48.854;9.302;2023-04-29T03:42:30;10.20;;;4.90;;
2099;SDS011;1055;48.854;9.302;2023-04-29T03:44:56;7.53;;;4.77;;
2099;SDS011;1055;48.854;9.302;2023-04-29T03:47:21;9.43;;;5.17;;
2099;SDS011;1055;48.854;9.302;2023-04-29T03:49:48;8.35;;;5.53;;
2099;SDS011;1055;48.854;9.302;2023-04-29T03:52:13;8.63;;;5.43;;
2099;SDS011;1055;48.854;9.302;2023-04-29T03:54:40;8.50;;;4.95;;
2099;SDS011;1055;48.854;9.302;2023-04-29T03:57:06;7.75;;;4.85;;
2099;SDS011;1055;48.854;9.302;2023-04-29T03:59:31;7.93;;;5.13;;
2099;SDS011;1055;48.854;9.302;2023-04-29T04:01:57;9.53;;;4.73;;
2099;SDS011;1055;48.854;9.302;2023-04-29T04:04:23;9.67;;;5.10;;
2099;SDS011;1055;48.854;9.302;2023-04-29T04:06:48;8.43;;;5.17;;
2099;SDS011;1055;48.854;9.302;2023-04-29T04:09:16;7.93;;;5.18;;
2099;SDS011;1055;48.854;9.302;2023-04-29T04:11:42;9.90;;;5.20;;
2099;SDS011;1055;48.854;9.302;2023-04-29T04:14:08;9.33;;;5.30;;
2099;SDS011;1055;48.854;9.302;2023-04-29T04:16:34;9.13;;;5.57;;
2099;SDS011;1055;48.854;9.302;2023-04-29T04:19:00;9.07;;;4.50;;
2099;SDS011;1055;48.854;9.302;2023-04-29T04:21:26;7.10;;;4.38;;
2099;SDS011;1055;48.854;9.302;2023-04-29T04:23:52;7.50;;;4.40;;
2099;SDS011;1055;48.854;9.302;2023-04-29T04:26:18;7.60;;;4.77;;
2099;SDS011;1055;48.854;9.302;2023-04-29T04:28:44;9.25;;;5.40;;
2099;SDS011;1055;48.854;9.302;2023-04-29T04:31:10;9.07;;;5.82;;
2099;SDS011;1055;48.854;9.302;2023-04-29T04:33:38;8.30;;;5.20;;
2099;SDS011;1055;48.854;9.302;2023-04-29T04:36:05;8.05;;;5.32;;
2099;SDS011;1055;48.854;9.302;2023-04-29T04:38:31;10.95;;;5.93;;
2099;SDS011;1055;48.854;9.302;2023-04-29T04:40:57;9.33;;;6.87;;
2099;SDS011;1055;48.854;9.302;2023-04-29T04:43:24;9.03;;;5.90;;
2099;SDS011;1055;48.854;9.302;2023-04-29T04:45:57;10.57;;;7.30;;
2099;SDS011;1055;48.854;9.302;2023-04-29T04:48:28;12.73;;;7.68;;
2099;SDS011;1055;48.854;9.302;2023-04-29T04:50:54;9.93;;;6.90;;
2099;SDS011;1055;48.854;9.302;2023-04-29T04:53:20;10.43;;;6.37;;
2099;SDS011;1055;48.854;9.302;2023-04-29T04:55:46;10.27;;;5.93;;
2099;SDS011;1055;48.854;9.302;2023-04-29T04:58:13;9.18;;;6.10;;
2099;SDS011;1055;48.854;9.302;2023-04-29T05:00:42;11.73;;;6.33;;
2099;SDS011;1055;48.854;9.302;2023-04-29T05:03:09;9.45;;;6.07;;
2099;SDS011;1055;48.854;9.302;2023-04-29T05:05:34;8.90;;;6.10;;
2099;SDS011;1055;48.854;9.302;2023-04-29T05:08:00;11.13;;;6.90;;
2099;SDS011;1055;48.854;9.302;2023-04-29T05:10:25;12.40;;;7.27;;
2099;SDS011;1055;48.854;9.302;2023-04-29T05:12:51;9.60;;;6.70;;
2099;SDS011;1055;48.854;9.302;2023-04-29T05:15:17;10.70;;;7.37;;
2099;SDS011;1055;48.854;9.302;2023-04-29T05:17:43;12.57;;;9.30;;
2099;SDS011;1055;48.854;9.302;2023-04-29T05:20:08;9.90;;;7.63;;
2099;SDS011;1055;48.854;9.302;2023-04-29T05:22:34;10.10;;;7.33;;
2099;SDS011;1055;48.854;9.302;2023-04-29T05:25:00;10.30;;;6.93;;
2099;SDS011;1055;48.854;9.302;2023-04-29T05:27:27;12.63;;;7.38;;
2099;SDS011;1055;48.854;9.302;2023-04-29T05:29:53;10.77;;;8.10;;
2099;SDS011;1055;48.854;9.302;2023-04-29T05:32:19;10.97;;;7.43;;
2099;SDS011;1055;48.854;9.302;2023-04-29T05:34:45;12.60;;;8.00;;
2099;SDS011;1055;48.854;9.302;2023-04-29T05:37:10;11.60;;;6.57;;
2099;SDS011;1055;48.854;9.302;2023-04-29T05:39:36;11.43;;;8.07;;
2099;SDS011;1055;48.854;9.302;2023-04-29T05:42:02;12.93;;;7.63;;
2099;SDS011;1055;48.854;9.302;2023-04-29T05:44:27;10.37;;;7.47;;
2099;SDS011;1055;48.854;9.302;2023-04-29T05:46:53;11.03;;;7.40;;
2099;SDS011;1055;48.854;9.302;2023-04-29T05:49:19;10.00;;;7.00;;
2099;SDS011;1055;48.854;9.302;2023-04-29T05:51:44;11.40;;;8.00;;
2099;SDS011;1055;48.854;9.302;2023-04-29T05:54:10;11.03;;;6.97;;
2099;SDS011;1055;48.854;9.302;2023-04-29T05:56:35;11.67;;;7.70;;
2099;SDS011;1055;48.854;9.302;2023-04-29T05:59:01;11.57;;;7.40;;
2099;SDS011;1055;48.854;9.302;2023-04-29T06:01:27;10.70;;;7.43;;
2099;SDS011;1055;48.854;9.302;2023-04-29T06:03:53;10.10;;;6.27;;
2099;SDS011;1055;48.854;9.302;2023-04-29T06:06:19;10.70;;;7.18;;
2099;SDS011;1055;48.854;9.302;2023-04-29T06:08:44;11.70;;;7.80;;
2099;SDS011;1055;48.854;9.302;2023-04-29T06:11:10;11.37;;;6.30;;
2099;SDS011;1055;48.854;9.302;2023-04-29T06:13:36;12.53;;;7.70;;
2099;SDS011;1055;48.854;9.302;2023-04-29T06:16:01;10.30;;;7.07;;
2099;SDS011;1055;48.854;9.302;2023-04-29T06:18:27;10.20;;;6.60;;
2099;SDS011;1055;48.854;9.302;2023-04-29T06:20:53;10.50;;;6.57;;
2099;SDS011;1055;48.854;9.302;2023-04-29T06:23:18;10.60;;;6.70;;
2099;SDS011;1055;48.854;9.302;2023-04-29T06:25:44;11.90;;;6.97;;
2099;SDS011;1055;48.854;9.302;2023-04-29T06:28:10;9.90;;;6.27;;
2099;SDS011;1055;48.854;9.302;2023-04-29T06:30:36;9.30;;;6.23;;
2099;SDS011;1055;48.854;9.302;2023-04-29T06:33:01;10.33;;;6.93;;
2099;SDS011;1055;48.854;9.302;2023-04-29T06:35:27;9.93;;;6.33;;
2099;SDS011;1055;48.854;9.302;2023-04-29T06:37:52;9.13;;;6.10;;
2099;SDS011;1055;48.854;9.302;2023-04-29T06:40:20;9.50;;;5.57;;
2099;SDS011;1055;48.854;9.302;2023-04-29T06:42:46;8.90;;;5.73;;
2099;SDS011;1055;48.854;9.302;2023-04-29T06:45:11;7.53;;;4.83;;
2099;SDS011;1055;48.854;9.302;2023-04-29T06:47:37;7.77;;;5.13;;
2099;SDS011;1055;48.854;9.302;2023-04-29T06:50:02;8.90;;;5.03;;
2099;SDS011;1055;48.854;9.302;2023-04-29T06:52:29;8.47;;;4.97;;
2099;SDS011;1055;48.854;9.302;2023-04-29T06:54:55;7.80;;;4.83;;
2099;SDS011;1055;48.854;9.302;2023-04-29T06:57:21;9.47;;;5.20;;
2099;SDS011;1055;48.854;9.302;2023-04-29T06:59:47;9.40;;;5.30;;
2099;SDS011;1055;48.854;9.302;2023-04-29T07:02:13;8.20;;;4.37;;
2099;SDS011;1055;48.854;9.302;2023-04-29T07:04:39;7.27;;;4.43;;
2099;SDS011;1055;48.854;9.302;2023-04-29T07:07:05;8.80;;;4.70;;
2099;SDS011;1055;48.854;9.302;2023-04-29T07:09:30;8.40;;;4.50;;
2099;SDS011;1055;48.854;9.302;2023-04-29T07:11:56;8.57;;;4.87;;
2099;SDS011;1055;48.854;9.302;2023-04-29T07:14:22;9.00;;;4.67;;
2099;SDS011;1055;48.854;9.302;2023-04-29T07:16:51;7.10;;;3.97;;
2099;SDS011;1055;48.854;9.302;2023-04-29T07:19:18;7.07;;;4.00;;
2099;SDS011;1055;48.854;9.302;2023-04-29T07:21:43;7.60;;;4.60;;
2099;SDS011;1055;48.854;9.302;2023-04-29T07:24:09;8.90;;;5.10;;
2099;SDS011;1055;48.854;9.302;2023-04-29T07:26:35;10.00;;;5.03;;
2099;SDS011;1055;48.854;9.302;2023-04-29T07:29:01;7.67;;;4.57;;
2099;SDS011;1055;48.854;9.302;2023-04-29T07:31:27;8.00;;;4.47;;
2099;SDS011;1055;48.854;9.302;2023-04-29T07:33:53;6.70;;;4.00;;
2099;SDS011;1055;48.854;9.302;2023-04-29T07:36:19;6.83;;;3.43;;
2099;SDS011;1055;48.854;9.302;2023-04-29T07:38:45;8.27;;;4.13;;
2099;SDS011;1055;48.854;9.302;2023-04-29T07:41:11;7.10;;;4.13;;
2099;SDS011;1055;48.854;9.302;2023-04-29T07:43:37;9.13;;;4.20;;
2099;SDS011;1055;48.854;9.302;2023-04-29T07:46:03;6.70;;;4.00;;
2099;SDS011;1055;48.854;9.302;2023-04-29T07:48:30;7.33;;;4.20;;
2099;SDS011;1055;48.854;9.302;2023-04-29T07:50:56;8.03;;;4.20;;
2099;SDS011;1055;48.854;9.302;2023-04-29T07:53:21;7.37;;;4.30;;
2099;SDS011;1055;48.854;9.302;2023-04-29T07:55:48;8.33;;;4.30;;
2099;SDS011;1055;48.854;9.302;2023-04-29T07:58:13;8.90;;;4.47;;
2099;SDS011;1055;48.854;9.302;2023-04-29T08:00:39;9.80;;;4.70;;
2099;SDS011;1055;48.854;9.302;2023-04-29T08:03:05;9.43;;;4.73;;
2099;SDS011;1055;48.854;9.302;2023-04-29T08:05:31;7.67;;;4.37;;
2099;SDS011;1055;48.854;9.302;2023-04-29T08:07:57;8.90;;;4.27;;
2099;SDS011;1055;48.854;9.302;2023-04-29T08:10:23;6.60;;;3.90;;
2099;SDS011;1055;48.854;9.302;2023-04-29T08:12:49;7.17;;;4.00;;
2099;SDS011;1055;48.854;9.302;2023-04-29T08:15:15;7.17;;;3.97;;
2099;SDS011;1055;48.854;9.302;2023-04-29T08:17:42;7.20;;;4.33;;
2099;SDS011;1055;48.854;9.302;2023-04-29T08:20:08;7.90;;;4.97;;
2099;SDS011;1055;48.854;9.302;2023-04-29T08:22:34;7.50;;;4.27;;
2099;SDS011;1055;48.854;9.302;2023-04-29T08:25:00;9.90;;;3.90;;
2099;SDS011;1055;48.854;9.302;2023-04-29T08:27:27;7.37;;;4.67;;
2099;SDS011;1055;48.854;9.302;2023-04-29T08:29:53;7.03;;;3.60;;
2099;SDS011;1055;48.854;9.302;2023-04-29T08:32:20;7.03;;;3.97;;
2099;SDS011;1055;48.854;9.302;2023-04-29T08:34:46;8.07;;;4.03;;
2099;SDS011;1055;48.854;9.302;2023-04-29T08:37:12;7.00;;;3.97;;
2099;SDS011;1055;48.854;9.302;2023-04-29T08:39:39;5.50;;;2.27;;
2099;SDS011;1055;48.854;9.302;2023-04-29T08:42:10;8.80;;;3.50;;
2099;SDS011;1055;48.854;9.302;2023-04-29T08:44:36;6.87;;;3.93;;
2099;SDS011;1055;48.854;9.302;2023-04-29T08:47:03;6.70;;;3.87;;
2099;SDS011;1055;48.854;9.302;2023-04-29T08:49:30;7.03;;;3.90;;
2099;SDS011;1055;48.854;9.302;2023-04-29T08:51:58;6.60;;;3.87;;
2099;SDS011;1055;48.854;9.302;2023-04-29T08:54:24;5.73;;;3.10;;
2099;SDS011;1055;48.854;9.302;2023-04-29T08:56:51;7.40;;;3.30;;
2099;SDS011;1055;48.854;9.302;2023-04-29T08:59:19;7.00;;;3.53;;
2099;SDS011;1055;48.854;9.302;2023-04-29T09:01:46;6.30;;;3.20;;
2099;SDS011;1055;48.854;9.302;2023-04-29T09:07:05;6.50;;;3.63;;
2099;SDS011;1055;48.854;9.302;2023-04-29T09:09:32;7.70;;;3.93;;
2099;SDS011;1055;48.854;9.302;2023-04-29T09:11:58;7.83;;;3.90;;
2099;SDS011;1055;48.854;9.302;2023-04-29T09:14:24;7.07;;;4.20;;
2099;SDS011;1055;48.854;9.302;2023-04-29T09:16:50;7.70;;;4.70;;
2099;SDS011;1055;48.854;9.302;2023-04-29T09:19:28;7.63;;;3.40;;
2099;SDS011;1055;48.854;9.302;2023-04-29T09:21:58;9.57;;;4.30;;
2099;SDS011;1055;48.854;9.302;2023-04-29T09:24:25;8.40;;;3.80;;
2099;SDS011;1055;48.854;9.302;2023-04-29T09:26:52;7.23;;;4.33;;
2099;SDS011;1055;48.854;9.302;2023-04-29T09:29:18;8.20;;;3.83;;
2099;SDS011;1055;48.854;9.302;2023-04-29T09:31:44;7.50;;;3.70;;
2099;SDS011;1055;48.854;9.302;2023-04-29T09:34:10;8.20;;;4.87;;
2099;SDS011;1055;48.854;9.302;2023-04-29T09:39:06;8.00;;;4.40;;
2099;SDS011;1055;48.854;9.302;2023-04-29T09:44:21;7.47;;;5.73;;
2099;SDS011;1055;48.854;9.302;2023-04-29T09:49:26;10.50;;;6.60;;
2099;SDS011;1055;48.854;9.302;2023-04-29T09:52:06;8.50;;;5.77;;
2099;SDS011;1055;48.854;9.302;2023-04-29T09:54:34;8.17;;;5.97;;
2099;SDS011;1055;48.854;9.302;2023-04-29T09:57:00;8.23;;;5.40;;
2099;SDS011;1055;48.854;9.302;2023-04-29T09:59:30;7.47;;;4.50;;
2099;SDS011;1055;48.854;9.302;2023-04-29T10:01:56;8.37;;;5.40;;
2099;SDS011;1055;48.854;9.302;2023-04-29T10:04:24;8.43;;;5.77;;
2099;SDS011;1055;48.854;9.302;2023-04-29T10:06:51;6.93;;;4.63;;
2099;SDS011;1055;48.854;9.302;2023-04-29T10:09:18;8.43;;;4.67;;
2099;SDS011;1055;48.854;9.302;2023-04-29T10:11:46;7.50;;;4.53;;
2099;SDS011;1055;48.854;9.302;2023-04-29T10:14:17;9.13;;;5.20;;
2099;SDS011;1055;48.854;9.302;2023-04-29T10:16:47;8.10;;;4.33;;
2099;SDS011;1055;48.854;9.302;2023-04-29T10:19:22;7.97;;;4.80;;
2099;SDS011;1055;48.854;9.302;2023-04-29T10:21:50;7.23;;;4.93;;
2099;SDS011;1055;48.854;9.302;2023-04-29T10:24:20;7.60;;;4.93;;
2099;SDS011;1055;48.854;9.302;2023-04-29T10:26:46;8.70;;;4.80;;
2099;SDS011;1055;48.854;9.302;2023-04-29T10:29:16;7.37;;;4.60;;
2099;SDS011;1055;48.854;9.302;2023-04-29T10:31:42;7.90;;;5.40;;
2099;SDS011;1055;48.854;9.302;2023-04-29T10:34:10;8.90;;;4.87;;
2099;SDS011;1055;48.854;9.302;2023-04-29T10:36:37;8.07;;;5.27;;
2099;SDS011;1055;48.854;9.302;2023-04-29T10:39:04;8.83;;;5.30;;
2099;SDS011;1055;48.854;9.302;2023-04-29T10:41:41;8.57;;;6.10;;
2099;SDS011;1055;48.854;9.302;2023-04-29T10:44:10;7.40;;;4.50;;
2099;SDS011;1055;48.854;9.302;2023-04-29T10:46:37;7.83;;;5.77;;
2099;SDS011;1055;48.854;9.302;2023-04-29T10:49:03;8.37;;;5.80;;
2099;SDS011;1055;48.854;9.302;2023-04-29T10:56:49;10.03;;;4.87;;
2099;SDS011;1055;48.854;9.302;2023-04-29T10:59:20;9.73;;;5.40;;
2099;SDS011;1055;48.854;9.302;2023-04-29T11:01:50;7.20;;;4.57;;
2099;SDS011;1055;48.854;9.302;2023-04-29T11:04:20;7.30;;;4.90;;
2099;SDS011;1055;48.854;9.302;2023-04-29T11:06:54;7.80;;;4.63;;
2099;SDS011;1055;48.854;9.302;2023-04-29T11:09:25;9.07;;;5.60;;
2099;SDS011;1055;48.854;9.302;2023-04-29T11:11:56;7.37;;;4.53;;
2099;SDS011;1055;48.854;9.302;2023-04-29T11:14:29;8.00;;;5.27;;
2099;SDS011;1055;48.854;9.302;2023-04-29T11:17:15;7.03;;;4.07;;
2099;SDS011;1055;48.854;9.302;2023-04-29T11:19:49;10.07;;;5.20;;
2099;SDS011;1055;48.854;9.302;2023-04-29T11:24:48;8.40;;;5.53;;
2099;SDS011;1055;48.854;9.302;2023-04-29T11:27:38;8.73;;;6.40;;
2099;SDS011;1055;48.854;9.302;2023-04-29T11:30:06;9.57;;;6.90;;
2099;SDS011;1055;48.854;9.302;2023-04-29T11:32:36;9.77;;;6.70;;
2099;SDS011;1055;48.854;9.302;2023-04-29T11:35:13;10.13;;;7.60;;
2099;SDS011;1055;48.854;9.302;2023-04-29T11:37:40;12.63;;;7.03;;
2099;SDS011;1055;48.854;9.302;2023-04-29T11:40:07;9.80;;;7.47;;
2099;SDS011;1055;48.854;9.302;2023-04-29T11:42:34;10.80;;;6.90;;
2099;SDS011;1055;48.854;9.302;2023-04-29T11:45:04;10.73;;;7.40;;
2099;SDS011;1055;48.854;9.302;2023-04-29T11:47:31;12.00;;;8.27;;
2099;SDS011;1055;48.854;9.302;2023-04-29T11:50:06;10.70;;;7.40;;
2099;SDS011;1055;48.854;9.302;2023-04-29T11:52:34;10.73;;;7.53;;
2099;SDS011;1055;48.854;9.302;2023-04-29T11:55:01;12.30;;;8.00;;
2099;SDS011;1055;48.854;9.302;2023-04-29T11:57:27;12.13;;;8.83;;
2099;SDS011;1055;48.854;9.302;2023-04-29T11:59:53;11.60;;;8.10;;
2099;SDS011;1055;48.854;9.302;2023-04-29T12:02:27;15.00;;;8.30;;
2099;SDS011;1055;48.854;9.302;2023-04-29T12:04:54;11.50;;;8.03;;
2099;SDS011;1055;48.854;9.302;2023-04-29T12:07:21;14.60;;;8.60;;
2099;SDS011;1055;48.854;9.302;2023-04-29T12:09:48;11.27;;;8.27;;
2099;SDS011;1055;48.854;9.302;2023-04-29T12:12:14;12.27;;;9.10;;
2099;SDS011;1055;48.854;9.302;2023-04-29T12:14:41;11.10;;;8.10;;
2099;SDS011;1055;48.854;9.302;2023-04-29T12:17:10;11.10;;;7.83;;
2099;SDS011;1055;48.854;9.302;2023-04-29T12:19:36;11.00;;;7.63;;
2099;SDS011;1055;48.854;9.302;2023-04-29T12:22:04;12.47;;;8.53;;
2099;SDS011;1055;48.854;9.302;2023-04-29T12:24:34;17.03;;;7.20;;
2099;SDS011;1055;48.854;9.302;2023-04-29T12:27:01;12.30;;;8.60;;
2099;SDS011;1055;48.854;9.302;2023-04-29T12:29:26;12.10;;;8.50;;
2099;SDS011;1055;48.854;9.302;2023-04-29T12:31:52;11.63;;;7.83;;
2099;SDS011;1055;48.854;9.302;2023-04-29T12:34:27;11.23;;;8.30;;
2099;SDS011;1055;48.854;9.302;2023-04-29T12:37:02;10.10;;;7.20;;
2099;SDS011;1055;48.854;9.302;2023-04-29T12:39:29;14.43;;;7.87;;
2099;SDS011;1055;48.854;9.302;2023-04-29T12:41:58;11.50;;;6.97;;
2099;SDS011;1055;48.854;9.302;2023-04-29T12:44:24;10.77;;;7.73;;
2099;SDS011;1055;48.854;9.302;2023-04-29T12:46:50;12.30;;;8.80;;
2099;SDS011;1055;48.854;9.302;2023-04-29T12:49:17;11.83;;;8.40;;
2099;SDS011;1055;48.854;9.302;2023-04-29T12:51:43;10.50;;;7.40;;
2099;SDS011;1055;48.854;9.302;2023-04-29T12:54:08;13.17;;;8.53;;
2099;SDS011;1055;48.854;9.302;2023-04-29T12:56:36;13.37;;;9.23;;
2099;SDS011;1055;48.854;9.302;2023-04-29T12:59:05;16.73;;;8.93;;
2099;SDS011;1055;48.854;9.302;2023-04-29T13:01:32;14.20;;;10.10;;
2099;SDS011;1055;48.854;9.302;2023-04-29T13:03:57;13.23;;;9.30;;
2099;SDS011;1055;48.854;9.302;2023-04-29T13:06:23;14.33;;;10.10;;
2099;SDS011;1055;48.854;9.302;2023-04-29T13:08:49;12.10;;;8.27;;
2099;SDS011;1055;48.854;9.302;2023-04-29T13:11:15;14.50;;;9.60;;
2099;SDS011;1055;48.854;9.302;2023-04-29T13:13:41;12.47;;;8.47;;
2099;SDS011;1055;48.854;9.302;2023-04-29T13:16:07;11.77;;;8.33;;
2099;SDS011;1055;48.854;9.302;2023-04-29T13:18:32;11.97;;;7.30;;
2099;SDS011;1055;48.854;9.302;2023-04-29T13:20:59;12.33;;;8.77;;
2099;SDS011;1055;48.854;9.302;2023-04-29T13:23:25;12.03;;;8.30;;
2099;SDS011;1055;48.854;9.302;2023-04-29T13:25:50;11.80;;;9.30;;
2099;SDS011;1055;48.854;9.302;2023-04-29T13:28:16;12.47;;;9.10;;
2099;SDS011;1055;48.854;9.302;2023-04-29T13:30:42;14.90;;;8.80;;
2099;SDS011;1055;48.854;9.302;2023-04-29T13:33:07;11.20;;;7.80;;
2099;SDS011;1055;48.854;9.302;2023-04-29T13:35:33;12.87;;;8.90;;
2099;SDS011;1055;48.854;9.302;2023-04-29T13:38:02;12.67;;;7.80;;
2099;SDS011;1055;48.854;9.302;2023-04-29T13:40:28;12.40;;;8.20;;
2099;SDS011;1055;48.854;9.302;2023-04-29T13:42:53;11.40;;;7.77;;
2099;SDS011;1055;48.854;9.302;2023-04-29T13:45:19;14.33;;;9.97;;
2099;SDS011;1055;48.854;9.302;2023-04-29T13:47:45;15.00;;;9.80;;
2099;SDS011;1055;48.854;9.302;2023-04-29T13:50:11;14.57;;;9.87;;
2099;SDS011;1055;48.854;9.302;2023-04-29T13:52:37;13.57;;;9.90;;
2099;SDS011;1055;48.854;9.302;2023-04-29T13:55:02;13.57;;;9.13;;
2099;SDS011;1055;48.854;9.302;2023-04-29T13:57:28;18.50;;;10.53;;
2099;SDS011;1055;48.854;9.302;2023-04-29T13:59:55;12.30;;;9.40;;
2099;SDS011;1055;48.854;9.302;2023-04-29T14:02:20;14.20;;;9.33;;
2099;SDS011;1055;48.854;9.302;2023-04-29T14:04:46;14.87;;;9.27;;
2099;SDS011;1055;48.854;9.302;2023-04-29T14:07:13;13.20;;;9.10;;
2099;SDS011;1055;48.854;9.302;2023-04-29T14:09:44;13.20;;;9.50;;
2099;SDS011;1055;48.854;9.302;2023-04-29T14:12:13;14.73;;;9.47;;
2099;SDS011;1055;48.854;9.302;2023-04-29T14:14:39;12.27;;;8.90;;
2099;SDS011;1055;48.854;9.302;2023-04-29T14:17:07;11.60;;;8.23;;
2099;SDS011;1055;48.854;9.302;2023-04-29T14:19:34;12.23;;;7.83;;
2099;SDS011;1055;48.854;9.302;2023-04-29T14:22:00;12.40;;;8.83;;
2099;SDS011;1055;48.854;9.302;2023-04-29T14:24:27;11.33;;;7.00;;
2099;SDS011;1055;48.854;9.302;2023-04-29T14:26:52;12.70;;;8.17;;
2099;SDS011;1055;48.854;9.302;2023-04-29T14:29:19;11.97;;;8.30;;
2099;SDS011;1055;48.854;9.302;2023-04-29T14:31:45;12.20;;;8.80;;
2099;SDS011;1055;48.854;9.302;2023-04-29T14:34:11;12.50;;;9.03;;
2099;SDS011;1055;48.854;9.302;2023-04-29T14:36:37;13.10;;;6.90;;
2099;SDS011;1055;48.854;9.302;2023-04-29T14:39:03;11.30;;;8.10;;
2099;SDS011;1055;48.854;9.302;2023-04-29T14:41:29;11.43;;;8.03;;
2099;SDS011;1055;48.854;9.302;2023-04-29T14:43:55;11.67;;;7.63;;
2099;SDS011;1055;48.854;9.302;2023-04-29T14:46:21;11.40;;;7.90;;
2099;SDS011;1055;48.854;9.302;2023-04-29T14:48:47;11.23;;;7.60;;
2099;SDS011;1055;48.854;9.302;2023-04-29T14:51:13;11.23;;;6.90;;
2099;SDS011;1055;48.854;9.302;2023-04-29T14:53:39;11.27;;;7.50;;
2099;SDS011;1055;48.854;9.302;2023-04-29T14:56:05;11.37;;;7.40;;
2099;SDS011;1055;48.854;9.302;2023-04-29T14:58:31;12.67;;;8.50;;
2099;SDS011;1055;48.854;9.302;2023-04-29T15:00:57;11.87;;;8.57;;
2099;SDS011;1055;48.854;9.302;2023-04-29T15:03:23;13.33;;;8.20;;
2099;SDS011;1055;48.854;9.302;2023-04-29T15:05:49;11.73;;;8.30;;
2099;SDS011;1055;48.854;9.302;2023-04-29T15:08:15;11.63;;;7.60;;
2099;SDS011;1055;48.854;9.302;2023-04-29T15:10:42;14.50;;;9.20;;
2099;SDS011;1055;48.854;9.302;2023-04-29T15:13:10;13.37;;;8.37;;
2099;SDS011;1055;48.854;9.302;2023-04-29T15:15:36;13.90;;;9.13;;
2099;SDS011;1055;48.854;9.302;2023-04-29T15:18:01;14.60;;;8.60;;
2099;SDS011;1055;48.854;9.302;2023-04-29T15:20:27;15.20;;;9.00;;
2099;SDS011;1055;48.854;9.302;2023-04-29T15:22:52;13.23;;;9.30;;
2099;SDS011;1055;48.854;9.302;2023-04-29T15:25:18;14.40;;;10.50;;
2099;SDS011;1055;48.854;9.302;2023-04-29T15:27:44;12.00;;;7.77;;
2099;SDS011;1055;48.854;9.302;2023-04-29T15:30:10;12.63;;;8.30;;
2099;SDS011;1055;48.854;9.302;2023-04-29T15:32:36;13.43;;;8.20;;
2099;SDS011;1055;48.854;9.302;2023-04-29T15:35:02;13.13;;;7.93;;
2099;SDS011;1055;48.854;9.302;2023-04-29T15:37:28;13.40;;;8.37;;